sensor_id;sensor_type;location;lat;lon;timestamp;P1;durP1;ratioP1;P2;durP2;ratioP2
12906;SDS011;6521;50.498;8.474;2022-08-18T00:01:33;10.65;;;9.60;;
12906;SDS011;6521;50.498;8.474;2022-08-18T00:04:04;10.60;;;9.60;;
12906;SDS011;6521;50.498;8.474;2022-08-18T00:06:35;10.48;;;9.45;;
12906;SDS011;6521;50.498;8.474;2022-08-18T00:09:06;10.52;;;9.15;;
12906;SDS011;6521;50.498;8.474;2022-08-18T00:11:40;10.00;;;9.10;;
12906;SDS011;6521;50.498;8.474;2022-08-18T00:14:14;11.25;;;9.85;;
12906;SDS011;6521;50.498;8.474;2022-08-18T00:16:47;11.93;;;9.93;;
12906;SDS011;6521;50.498;8.474;2022-08-18T00:19:19;11.60;;;9.63;;
12906;SDS011;6521;50.498;8.474;2022-08-18T00:21:51;11.15;;;10.15;;
12906;SDS011;6521;50.498;8.474;2022-08-18T00:24:22;10.48;;;9.23;;
12906;SDS011;6521;50.498;8.474;2022-08-18T00:26:52;11.07;;;10.00;;
12906;SDS011;6521;50.498;8.474;2022-08-18T00:29:24;11.70;;;10.48;;
12906;SDS011;6521;50.498;8.474;2022-08-18T00:31:54;11.02;;;9.82;;
12906;SDS011;6521;50.498;8.474;2022-08-18T00:34:25;9.55;;;8.75;;
12906;SDS011;6521;50.498;8.474;2022-08-18T00:36:56;10.90;;;9.88;;
12906;SDS011;6521;50.498;8.474;2022-08-18T00:39:26;11.13;;;9.43;;
12906;SDS011;6521;50.498;8.474;2022-08-18T00:42:10;10.30;;;9.32;;
12906;SDS011;6521;50.498;8.474;2022-08-18T00:44:45;10.80;;;9.73;;
12906;SDS011;6521;50.498;8.474;2022-08-18T00:47:16;10.57;;;9.63;;
12906;SDS011;6521;50.498;8.474;2022-08-18T00:49:47;11.00;;;9.90;;
12906;SDS011;6521;50.498;8.474;2022-08-18T00:52:20;10.95;;;9.93;;
12906;SDS011;6521;50.498;8.474;2022-08-18T00:54:52;10.68;;;9.45;;
12906;SDS011;6521;50.498;8.474;2022-08-18T00:57:24;9.77;;;8.95;;
12906;SDS011;6521;50.498;8.474;2022-08-18T00:59:58;10.05;;;9.15;;
12906;SDS011;6521;50.498;8.474;2022-08-18T01:02:42;10.30;;;9.40;;
12906;SDS011;6521;50.498;8.474;2022-08-18T01:05:20;9.63;;;8.73;;
12906;SDS011;6521;50.498;8.474;2022-08-18T01:07:54;14.38;;;9.73;;
12906;SDS011;6521;50.498;8.474;2022-08-18T01:10:25;10.50;;;9.50;;
12906;SDS011;6521;50.498;8.474;2022-08-18T01:12:57;13.85;;;9.52;;
12906;SDS011;6521;50.498;8.474;2022-08-18T01:15:28;11.43;;;9.52;;
12906;SDS011;6521;50.498;8.474;2022-08-18T01:18:03;11.80;;;10.52;;
12906;SDS011;6521;50.498;8.474;2022-08-18T01:21:15;16.08;;;10.65;;
12906;SDS011;6521;50.498;8.474;2022-08-18T01:24:08;12.60;;;10.90;;
12906;SDS011;6521;50.498;8.474;2022-08-18T01:26:42;12.60;;;11.30;;
12906;SDS011;6521;50.498;8.474;2022-08-18T01:29:19;11.50;;;10.40;;
12906;SDS011;6521;50.498;8.474;2022-08-18T01:31:50;11.90;;;10.70;;
12906;SDS011;6521;50.498;8.474;2022-08-18T01:34:25;11.63;;;10.52;;
12906;SDS011;6521;50.498;8.474;2022-08-18T01:36:57;12.35;;;11.05;;
12906;SDS011;6521;50.498;8.474;2022-08-18T01:39:28;11.65;;;10.60;;
12906;SDS011;6521;50.498;8.474;2022-08-18T01:41:59;14.40;;;10.43;;
12906;SDS011;6521;50.498;8.474;2022-08-18T01:44:30;12.00;;;10.75;;
12906;SDS011;6521;50.498;8.474;2022-08-18T01:47:02;12.18;;;10.80;;
12906;SDS011;6521;50.498;8.474;2022-08-18T01:49:33;12.57;;;10.48;;
12906;SDS011;6521;50.498;8.474;2022-08-18T01:52:04;15.00;;;11.25;;
12906;SDS011;6521;50.498;8.474;2022-08-18T01:54:36;11.32;;;10.30;;
12906;SDS011;6521;50.498;8.474;2022-08-18T01:57:08;12.25;;;10.73;;
12906;SDS011;6521;50.498;8.474;2022-08-18T01:59:42;14.15;;;10.80;;
12906;SDS011;6521;50.498;8.474;2022-08-18T02:02:15;12.02;;;10.77;;
12906;SDS011;6521;50.498;8.474;2022-08-18T02:05:00;13.35;;;12.02;;
12906;SDS011;6521;50.498;8.474;2022-08-18T02:07:35;13.13;;;11.88;;
12906;SDS011;6521;50.498;8.474;2022-08-18T02:10:07;13.15;;;12.00;;
12906;SDS011;6521;50.498;8.474;2022-08-18T02:12:42;14.43;;;11.50;;
12906;SDS011;6521;50.498;8.474;2022-08-18T02:15:13;12.90;;;11.50;;
12906;SDS011;6521;50.498;8.474;2022-08-18T02:17:44;12.45;;;11.25;;
12906;SDS011;6521;50.498;8.474;2022-08-18T02:20:16;12.35;;;11.07;;
12906;SDS011;6521;50.498;8.474;2022-08-18T02:22:48;14.13;;;11.43;;
12906;SDS011;6521;50.498;8.474;2022-08-18T02:25:19;12.18;;;11.07;;
12906;SDS011;6521;50.498;8.474;2022-08-18T02:27:50;11.60;;;10.65;;
12906;SDS011;6521;50.498;8.474;2022-08-18T02:30:20;13.00;;;11.65;;
12906;SDS011;6521;50.498;8.474;2022-08-18T02:32:51;12.77;;;11.52;;
12906;SDS011;6521;50.498;8.474;2022-08-18T02:35:21;13.50;;;12.10;;
12906;SDS011;6521;50.498;8.474;2022-08-18T02:37:52;12.00;;;10.82;;
12906;SDS011;6521;50.498;8.474;2022-08-18T02:40:23;11.85;;;10.70;;
12906;SDS011;6521;50.498;8.474;2022-08-18T02:42:53;13.45;;;11.38;;
12906;SDS011;6521;50.498;8.474;2022-08-18T02:45:25;12.95;;;11.35;;
12906;SDS011;6521;50.498;8.474;2022-08-18T02:47:55;12.60;;;11.40;;
12906;SDS011;6521;50.498;8.474;2022-08-18T02:50:27;12.07;;;11.05;;
12906;SDS011;6521;50.498;8.474;2022-08-18T02:53:00;14.38;;;13.10;;
12906;SDS011;6521;50.498;8.474;2022-08-18T02:55:31;14.18;;;12.77;;
12906;SDS011;6521;50.498;8.474;2022-08-18T02:58:02;15.25;;;13.77;;
12906;SDS011;6521;50.498;8.474;2022-08-18T03:00:33;15.77;;;14.30;;
12906;SDS011;6521;50.498;8.474;2022-08-18T03:03:03;15.07;;;13.55;;
12906;SDS011;6521;50.498;8.474;2022-08-18T03:05:34;13.98;;;12.50;;
12906;SDS011;6521;50.498;8.474;2022-08-18T03:08:05;15.45;;;13.93;;
12906;SDS011;6521;50.498;8.474;2022-08-18T03:10:35;15.10;;;13.73;;
12906;SDS011;6521;50.498;8.474;2022-08-18T03:13:06;16.58;;;15.00;;
12906;SDS011;6521;50.498;8.474;2022-08-18T03:15:36;15.48;;;13.80;;
12906;SDS011;6521;50.498;8.474;2022-08-18T03:18:07;16.95;;;15.38;;
12906;SDS011;6521;50.498;8.474;2022-08-18T03:20:38;15.75;;;14.18;;
12906;SDS011;6521;50.498;8.474;2022-08-18T03:23:09;15.80;;;14.30;;
12906;SDS011;6521;50.498;8.474;2022-08-18T03:25:44;14.82;;;13.25;;
12906;SDS011;6521;50.498;8.474;2022-08-18T03:28:16;15.48;;;13.88;;
12906;SDS011;6521;50.498;8.474;2022-08-18T03:30:48;13.50;;;12.20;;
12906;SDS011;6521;50.498;8.474;2022-08-18T03:33:18;12.80;;;11.70;;
12906;SDS011;6521;50.498;8.474;2022-08-18T03:35:49;13.43;;;12.23;;
12906;SDS011;6521;50.498;8.474;2022-08-18T03:38:20;12.30;;;11.20;;
12906;SDS011;6521;50.498;8.474;2022-08-18T03:40:51;14.95;;;13.55;;
12906;SDS011;6521;50.498;8.474;2022-08-18T03:43:22;15.02;;;13.52;;
12906;SDS011;6521;50.498;8.474;2022-08-18T03:45:53;14.85;;;13.32;;
12906;SDS011;6521;50.498;8.474;2022-08-18T03:48:24;15.48;;;13.75;;
12906;SDS011;6521;50.498;8.474;2022-08-18T03:51:00;15.55;;;14.13;;
12906;SDS011;6521;50.498;8.474;2022-08-18T03:53:36;18.80;;;15.18;;
12906;SDS011;6521;50.498;8.474;2022-08-18T03:56:08;19.35;;;15.25;;
12906;SDS011;6521;50.498;8.474;2022-08-18T03:58:45;16.45;;;14.65;;
12906;SDS011;6521;50.498;8.474;2022-08-18T04:01:20;18.15;;;16.40;;
12906;SDS011;6521;50.498;8.474;2022-08-18T04:03:55;18.88;;;16.80;;
12906;SDS011;6521;50.498;8.474;2022-08-18T04:06:32;19.75;;;17.85;;
12906;SDS011;6521;50.498;8.474;2022-08-18T04:09:05;18.85;;;16.88;;
12906;SDS011;6521;50.498;8.474;2022-08-18T04:11:38;18.50;;;15.45;;
12906;SDS011;6521;50.498;8.474;2022-08-18T04:14:13;16.85;;;15.13;;
12906;SDS011;6521;50.498;8.474;2022-08-18T04:16:46;16.52;;;14.85;;
12906;SDS011;6521;50.498;8.474;2022-08-18T04:19:18;15.13;;;13.50;;
12906;SDS011;6521;50.498;8.474;2022-08-18T04:21:50;14.80;;;13.40;;
12906;SDS011;6521;50.498;8.474;2022-08-18T04:24:21;13.55;;;12.18;;
12906;SDS011;6521;50.498;8.474;2022-08-18T04:26:52;14.68;;;13.18;;
12906;SDS011;6521;50.498;8.474;2022-08-18T04:29:23;14.48;;;13.05;;
12906;SDS011;6521;50.498;8.474;2022-08-18T04:31:53;13.43;;;12.18;;
12906;SDS011;6521;50.498;8.474;2022-08-18T04:34:24;13.82;;;12.60;;
12906;SDS011;6521;50.498;8.474;2022-08-18T04:36:55;14.80;;;13.35;;
12906;SDS011;6521;50.498;8.474;2022-08-18T04:39:26;15.60;;;14.05;;
12906;SDS011;6521;50.498;8.474;2022-08-18T04:41:57;15.80;;;14.35;;
12906;SDS011;6521;50.498;8.474;2022-08-18T04:44:28;16.23;;;14.43;;
12906;SDS011;6521;50.498;8.474;2022-08-18T04:46:59;16.45;;;14.98;;
12906;SDS011;6521;50.498;8.474;2022-08-18T04:49:30;16.15;;;14.30;;
12906;SDS011;6521;50.498;8.474;2022-08-18T04:52:02;18.15;;;16.55;;
12906;SDS011;6521;50.498;8.474;2022-08-18T04:54:53;16.20;;;14.55;;
12906;SDS011;6521;50.498;8.474;2022-08-18T04:57:24;16.88;;;14.63;;
12906;SDS011;6521;50.498;8.474;2022-08-18T04:59:55;17.80;;;16.13;;
12906;SDS011;6521;50.498;8.474;2022-08-18T05:02:27;20.00;;;14.38;;
12906;SDS011;6521;50.498;8.474;2022-08-18T05:04:58;22.13;;;15.52;;
12906;SDS011;6521;50.498;8.474;2022-08-18T05:07:30;16.70;;;14.77;;
12906;SDS011;6521;50.498;8.474;2022-08-18T05:10:02;15.52;;;14.02;;
12906;SDS011;6521;50.498;8.474;2022-08-18T05:12:33;16.90;;;15.02;;
12906;SDS011;6521;50.498;8.474;2022-08-18T05:15:04;16.55;;;14.95;;
12906;SDS011;6521;50.498;8.474;2022-08-18T05:17:36;15.57;;;13.98;;
12906;SDS011;6521;50.498;8.474;2022-08-18T05:20:09;35.35;;;14.05;;
12906;SDS011;6521;50.498;8.474;2022-08-18T05:22:40;17.20;;;15.43;;
12906;SDS011;6521;50.498;8.474;2022-08-18T05:25:12;16.02;;;14.52;;
12906;SDS011;6521;50.498;8.474;2022-08-18T05:27:43;15.77;;;14.18;;
12906;SDS011;6521;50.498;8.474;2022-08-18T05:30:14;16.33;;;14.80;;
12906;SDS011;6521;50.498;8.474;2022-08-18T05:32:45;16.08;;;14.45;;
12906;SDS011;6521;50.498;8.474;2022-08-18T05:35:24;16.23;;;13.90;;
12906;SDS011;6521;50.498;8.474;2022-08-18T05:38:19;16.58;;;13.23;;
12906;SDS011;6521;50.498;8.474;2022-08-18T05:43:45;14.63;;;13.10;;
12906;SDS011;6521;50.498;8.474;2022-08-18T05:46:18;14.20;;;13.00;;
12906;SDS011;6521;50.498;8.474;2022-08-18T05:48:53;15.05;;;13.65;;
12906;SDS011;6521;50.498;8.474;2022-08-18T05:51:27;14.52;;;13.23;;
12906;SDS011;6521;50.498;8.474;2022-08-18T05:54:01;18.83;;;13.10;;
12906;SDS011;6521;50.498;8.474;2022-08-18T05:56:53;18.85;;;14.63;;
12906;SDS011;6521;50.498;8.474;2022-08-18T05:59:31;15.75;;;14.23;;
12906;SDS011;6521;50.498;8.474;2022-08-18T06:05:00;14.85;;;13.48;;
12906;SDS011;6521;50.498;8.474;2022-08-18T06:07:40;13.68;;;12.48;;
12906;SDS011;6521;50.498;8.474;2022-08-18T06:10:14;20.67;;;14.43;;
12906;SDS011;6521;50.498;8.474;2022-08-18T06:12:46;16.98;;;15.43;;
12906;SDS011;6521;50.498;8.474;2022-08-18T06:15:24;16.75;;;13.90;;
12906;SDS011;6521;50.498;8.474;2022-08-18T06:23:56;18.23;;;13.27;;
12906;SDS011;6521;50.498;8.474;2022-08-18T06:29:46;79.10;;;17.60;;
12906;SDS011;6521;50.498;8.474;2022-08-18T06:35:33;16.55;;;14.90;;
12906;SDS011;6521;50.498;8.474;2022-08-18T06:38:22;18.00;;;15.48;;
12906;SDS011;6521;50.498;8.474;2022-08-18T06:41:32;25.67;;;15.93;;
12906;SDS011;6521;50.498;8.474;2022-08-18T06:44:06;17.67;;;14.57;;
12906;SDS011;6521;50.498;8.474;2022-08-18T06:52:18;15.80;;;14.20;;
12906;SDS011;6521;50.498;8.474;2022-08-18T06:54:49;16.48;;;14.88;;
12906;SDS011;6521;50.498;8.474;2022-08-18T06:57:25;15.13;;;13.52;;
12906;SDS011;6521;50.498;8.474;2022-08-18T07:00:00;16.30;;;14.60;;
12906;SDS011;6521;50.498;8.474;2022-08-18T07:02:58;15.43;;;13.85;;
12906;SDS011;6521;50.498;8.474;2022-08-18T07:05:58;14.90;;;13.48;;
12906;SDS011;6521;50.498;8.474;2022-08-18T07:08:36;19.48;;;14.25;;
12906;SDS011;6521;50.498;8.474;2022-08-18T07:11:17;21.08;;;14.55;;
12906;SDS011;6521;50.498;8.474;2022-08-18T07:13:54;15.77;;;12.45;;
12906;SDS011;6521;50.498;8.474;2022-08-18T07:16:31;15.50;;;13.43;;
12906;SDS011;6521;50.498;8.474;2022-08-18T07:19:07;14.95;;;12.80;;
12906;SDS011;6521;50.498;8.474;2022-08-18T07:21:46;21.20;;;13.35;;
12906;SDS011;6521;50.498;8.474;2022-08-18T07:24:44;18.88;;;13.90;;
12906;SDS011;6521;50.498;8.474;2022-08-18T07:27:21;16.27;;;13.48;;
12906;SDS011;6521;50.498;8.474;2022-08-18T07:30:10;20.90;;;14.48;;
12906;SDS011;6521;50.498;8.474;2022-08-18T07:35:16;13.35;;;12.10;;
12906;SDS011;6521;50.498;8.474;2022-08-18T07:37:56;18.85;;;14.20;;
12906;SDS011;6521;50.498;8.474;2022-08-18T07:40:35;16.25;;;14.55;;
12906;SDS011;6521;50.498;8.474;2022-08-18T07:43:23;17.00;;;14.98;;
12906;SDS011;6521;50.498;8.474;2022-08-18T07:46:11;16.13;;;14.50;;
12906;SDS011;6521;50.498;8.474;2022-08-18T07:48:46;14.80;;;13.45;;
12906;SDS011;6521;50.498;8.474;2022-08-18T07:51:38;16.30;;;14.23;;
12906;SDS011;6521;50.498;8.474;2022-08-18T08:03:10;16.73;;;15.23;;
12906;SDS011;6521;50.498;8.474;2022-08-18T08:08:27;15.13;;;13.52;;
12906;SDS011;6521;50.498;8.474;2022-08-18T08:11:05;30.88;;;14.63;;
12906;SDS011;6521;50.498;8.474;2022-08-18T08:16:36;16.60;;;14.90;;
12906;SDS011;6521;50.498;8.474;2022-08-18T08:19:28;17.38;;;15.43;;
12906;SDS011;6521;50.498;8.474;2022-08-18T08:22:03;16.58;;;14.95;;
12906;SDS011;6521;50.498;8.474;2022-08-18T08:25:00;17.65;;;15.95;;
12906;SDS011;6521;50.498;8.474;2022-08-18T08:36:20;16.25;;;14.52;;
12906;SDS011;6521;50.498;8.474;2022-08-18T08:38:58;17.30;;;14.38;;
12906;SDS011;6521;50.498;8.474;2022-08-18T08:41:36;16.13;;;14.52;;
12906;SDS011;6521;50.498;8.474;2022-08-18T08:47:04;23.55;;;14.52;;
12906;SDS011;6521;50.498;8.474;2022-08-18T08:49:41;14.00;;;12.65;;
12906;SDS011;6521;50.498;8.474;2022-08-18T08:52:25;15.90;;;13.93;;
12906;SDS011;6521;50.498;8.474;2022-08-18T09:00:31;16.58;;;14.43;;
12906;SDS011;6521;50.498;8.474;2022-08-18T09:05:58;17.58;;;15.77;;
12906;SDS011;6521;50.498;8.474;2022-08-18T09:11:27;18.10;;;15.70;;
12906;SDS011;6521;50.498;8.474;2022-08-18T09:19:49;14.98;;;13.40;;
12906;SDS011;6521;50.498;8.474;2022-08-18T09:28:11;15.15;;;13.75;;
12906;SDS011;6521;50.498;8.474;2022-08-18T09:36:20;15.10;;;13.57;;
12906;SDS011;6521;50.498;8.474;2022-08-18T09:42:00;22.27;;;13.45;;
12906;SDS011;6521;50.498;8.474;2022-08-18T09:49:53;15.07;;;13.68;;
12906;SDS011;6521;50.498;8.474;2022-08-18T09:52:47;16.88;;;14.93;;
12906;SDS011;6521;50.498;8.474;2022-08-18T10:00:44;13.95;;;12.57;;
12906;SDS011;6521;50.498;8.474;2022-08-18T10:03:35;15.52;;;12.57;;
12906;SDS011;6521;50.498;8.474;2022-08-18T10:06:16;16.88;;;13.63;;
12906;SDS011;6521;50.498;8.474;2022-08-18T10:09:01;15.20;;;13.90;;
12906;SDS011;6521;50.498;8.474;2022-08-18T10:11:47;15.32;;;11.40;;
12906;SDS011;6521;50.498;8.474;2022-08-18T10:14:50;12.57;;;11.45;;
12906;SDS011;6521;50.498;8.474;2022-08-18T10:29:50;14.82;;;13.32;;
12906;SDS011;6521;50.498;8.474;2022-08-18T10:32:22;15.00;;;13.10;;
12906;SDS011;6521;50.498;8.474;2022-08-18T10:38:21;15.05;;;13.65;;
12906;SDS011;6521;50.498;8.474;2022-08-18T10:41:46;15.43;;;14.02;;
12906;SDS011;6521;50.498;8.474;2022-08-18T10:43:54;20.67;;;15.05;;
12906;SDS011;6521;50.498;8.474;2022-08-18T10:46:28;17.33;;;15.60;;
12906;SDS011;6521;50.498;8.474;2022-08-18T10:51:47;18.27;;;16.70;;
12906;SDS011;6521;50.498;8.474;2022-08-18T10:54:31;18.02;;;16.27;;
12906;SDS011;6521;50.498;8.474;2022-08-18T11:05:30;17.50;;;15.80;;
12906;SDS011;6521;50.498;8.474;2022-08-18T11:08:03;18.42;;;15.52;;
12906;SDS011;6521;50.498;8.474;2022-08-18T11:16:02;14.05;;;12.75;;
12906;SDS011;6521;50.498;8.474;2022-08-18T11:19:05;19.67;;;15.45;;
12906;SDS011;6521;50.498;8.474;2022-08-18T11:21:43;15.52;;;14.13;;
12906;SDS011;6521;50.498;8.474;2022-08-18T11:24:20;16.60;;;14.23;;
12906;SDS011;6521;50.498;8.474;2022-08-18T11:26:56;16.23;;;14.73;;
12906;SDS011;6521;50.498;8.474;2022-08-18T11:32:26;15.55;;;14.02;;
12906;SDS011;6521;50.498;8.474;2022-08-18T11:40:20;17.10;;;15.70;;
12906;SDS011;6521;50.498;8.474;2022-08-18T11:42:57;16.55;;;15.05;;
12906;SDS011;6521;50.498;8.474;2022-08-18T11:45:35;17.88;;;15.43;;
12906;SDS011;6521;50.498;8.474;2022-08-18T11:48:31;13.93;;;12.55;;
12906;SDS011;6521;50.498;8.474;2022-08-18T11:51:15;16.38;;;14.73;;
12906;SDS011;6521;50.498;8.474;2022-08-18T11:56:49;15.10;;;13.60;;
12906;SDS011;6521;50.498;8.474;2022-08-18T12:01:58;13.18;;;11.82;;
12906;SDS011;6521;50.498;8.474;2022-08-18T12:04:36;14.13;;;12.75;;
12906;SDS011;6521;50.498;8.474;2022-08-18T12:07:13;13.00;;;11.63;;
12906;SDS011;6521;50.498;8.474;2022-08-18T12:09:47;13.10;;;11.85;;
12906;SDS011;6521;50.498;8.474;2022-08-18T12:12:48;14.52;;;12.10;;
12906;SDS011;6521;50.498;8.474;2022-08-18T12:17:58;15.82;;;13.93;;
12906;SDS011;6521;50.498;8.474;2022-08-18T12:20:29;16.45;;;13.32;;
12906;SDS011;6521;50.498;8.474;2022-08-18T12:22:59;18.55;;;12.23;;
12906;SDS011;6521;50.498;8.474;2022-08-18T12:25:30;19.83;;;14.95;;
12906;SDS011;6521;50.498;8.474;2022-08-18T12:28:01;15.18;;;13.57;;
12906;SDS011;6521;50.498;8.474;2022-08-18T12:30:32;16.92;;;14.93;;
12906;SDS011;6521;50.498;8.474;2022-08-18T12:33:03;16.52;;;14.93;;
12906;SDS011;6521;50.498;8.474;2022-08-18T12:35:34;15.20;;;13.98;;
12906;SDS011;6521;50.498;8.474;2022-08-18T12:38:05;16.67;;;15.13;;
12906;SDS011;6521;50.498;8.474;2022-08-18T12:40:35;16.90;;;15.27;;
12906;SDS011;6521;50.498;8.474;2022-08-18T12:43:07;16.60;;;14.85;;
12906;SDS011;6521;50.498;8.474;2022-08-18T12:45:38;16.35;;;14.95;;
12906;SDS011;6521;50.498;8.474;2022-08-18T12:48:10;14.85;;;13.35;;
12906;SDS011;6521;50.498;8.474;2022-08-18T12:50:42;14.65;;;13.25;;
12906;SDS011;6521;50.498;8.474;2022-08-18T12:53:13;17.52;;;14.65;;
12906;SDS011;6521;50.498;8.474;2022-08-18T12:55:44;15.57;;;14.10;;
12906;SDS011;6521;50.498;8.474;2022-08-18T12:58:15;14.45;;;13.20;;
12906;SDS011;6521;50.498;8.474;2022-08-18T13:00:46;15.32;;;13.75;;
12906;SDS011;6521;50.498;8.474;2022-08-18T13:03:17;14.70;;;13.30;;
12906;SDS011;6521;50.498;8.474;2022-08-18T13:05:48;12.98;;;11.82;;
12906;SDS011;6521;50.498;8.474;2022-08-18T13:08:20;24.88;;;14.32;;
12906;SDS011;6521;50.498;8.474;2022-08-18T13:10:51;13.57;;;12.00;;
12906;SDS011;6521;50.498;8.474;2022-08-18T13:13:22;15.18;;;13.80;;
12906;SDS011;6521;50.498;8.474;2022-08-18T13:15:53;14.80;;;13.30;;
12906;SDS011;6521;50.498;8.474;2022-08-18T13:18:24;15.20;;;13.50;;
12906;SDS011;6521;50.498;8.474;2022-08-18T13:20:56;26.83;;;13.70;;
12906;SDS011;6521;50.498;8.474;2022-08-18T13:23:28;13.15;;;11.77;;
12906;SDS011;6521;50.498;8.474;2022-08-18T13:25:59;24.50;;;13.18;;
12906;SDS011;6521;50.498;8.474;2022-08-18T13:28:33;13.95;;;12.52;;
12906;SDS011;6521;50.498;8.474;2022-08-18T13:31:04;35.88;;;13.90;;
12906;SDS011;6521;50.498;8.474;2022-08-18T13:33:35;21.33;;;12.52;;
12906;SDS011;6521;50.498;8.474;2022-08-18T13:36:06;27.13;;;14.00;;
12906;SDS011;6521;50.498;8.474;2022-08-18T13:38:37;13.60;;;12.40;;
12906;SDS011;6521;50.498;8.474;2022-08-18T13:41:10;17.83;;;13.52;;
12906;SDS011;6521;50.498;8.474;2022-08-18T13:43:42;15.60;;;13.85;;
12906;SDS011;6521;50.498;8.474;2022-08-18T13:46:16;15.30;;;13.73;;
12906;SDS011;6521;50.498;8.474;2022-08-18T13:48:48;14.15;;;12.85;;
12906;SDS011;6521;50.498;8.474;2022-08-18T13:51:21;19.42;;;14.65;;
12906;SDS011;6521;50.498;8.474;2022-08-18T13:53:54;16.52;;;12.57;;
12906;SDS011;6521;50.498;8.474;2022-08-18T13:56:25;17.42;;;12.18;;
12906;SDS011;6521;50.498;8.474;2022-08-18T13:58:56;14.15;;;12.77;;
12906;SDS011;6521;50.498;8.474;2022-08-18T14:01:26;14.18;;;12.88;;
12906;SDS011;6521;50.498;8.474;2022-08-18T14:03:57;18.95;;;13.30;;
12906;SDS011;6521;50.498;8.474;2022-08-18T14:06:28;14.07;;;12.75;;
12906;SDS011;6521;50.498;8.474;2022-08-18T14:08:59;14.10;;;12.85;;
12906;SDS011;6521;50.498;8.474;2022-08-18T14:11:30;21.95;;;13.23;;
12906;SDS011;6521;50.498;8.474;2022-08-18T14:14:03;13.70;;;12.40;;
12906;SDS011;6521;50.498;8.474;2022-08-18T14:16:34;14.10;;;12.80;;
12906;SDS011;6521;50.498;8.474;2022-08-18T14:19:05;12.57;;;10.77;;
12906;SDS011;6521;50.498;8.474;2022-08-18T14:21:54;12.55;;;10.30;;
12906;SDS011;6521;50.498;8.474;2022-08-18T14:24:44;12.95;;;11.80;;
12906;SDS011;6521;50.498;8.474;2022-08-18T14:27:35;13.63;;;12.18;;
12906;SDS011;6521;50.498;8.474;2022-08-18T14:30:08;14.68;;;13.30;;
12906;SDS011;6521;50.498;8.474;2022-08-18T14:32:41;15.70;;;12.18;;
12906;SDS011;6521;50.498;8.474;2022-08-18T14:35:13;13.52;;;12.38;;
12906;SDS011;6521;50.498;8.474;2022-08-18T14:37:45;20.92;;;13.05;;
12906;SDS011;6521;50.498;8.474;2022-08-18T14:40:15;13.82;;;12.57;;
12906;SDS011;6521;50.498;8.474;2022-08-18T14:42:49;12.82;;;11.82;;
12906;SDS011;6521;50.498;8.474;2022-08-18T14:45:20;14.63;;;13.27;;
12906;SDS011;6521;50.498;8.474;2022-08-18T14:47:51;64.45;;;16.08;;
12906;SDS011;6521;50.498;8.474;2022-08-18T14:50:23;24.35;;;12.15;;
12906;SDS011;6521;50.498;8.474;2022-08-18T14:52:54;21.17;;;13.30;;
12906;SDS011;6521;50.498;8.474;2022-08-18T14:55:25;19.55;;;13.35;;
12906;SDS011;6521;50.498;8.474;2022-08-18T14:57:55;27.70;;;14.25;;
12906;SDS011;6521;50.498;8.474;2022-08-18T15:00:26;15.45;;;12.88;;
12906;SDS011;6521;50.498;8.474;2022-08-18T15:02:57;18.08;;;13.52;;
12906;SDS011;6521;50.498;8.474;2022-08-18T15:05:28;13.63;;;12.32;;
12906;SDS011;6521;50.498;8.474;2022-08-18T15:08:02;20.25;;;13.45;;
12906;SDS011;6521;50.498;8.474;2022-08-18T15:10:33;15.35;;;13.77;;
12906;SDS011;6521;50.498;8.474;2022-08-18T15:13:04;16.92;;;14.40;;
12906;SDS011;6521;50.498;8.474;2022-08-18T15:15:35;17.13;;;13.88;;
12906;SDS011;6521;50.498;8.474;2022-08-18T15:18:06;15.30;;;13.82;;
12906;SDS011;6521;50.498;8.474;2022-08-18T15:20:37;14.15;;;12.80;;
12906;SDS011;6521;50.498;8.474;2022-08-18T15:23:29;14.20;;;12.73;;
12906;SDS011;6521;50.498;8.474;2022-08-18T15:26:20;14.10;;;12.90;;
12906;SDS011;6521;50.498;8.474;2022-08-18T15:28:53;14.90;;;13.45;;
12906;SDS011;6521;50.498;8.474;2022-08-18T15:31:24;15.20;;;13.40;;
12906;SDS011;6521;50.498;8.474;2022-08-18T15:33:56;15.30;;;13.15;;
12906;SDS011;6521;50.498;8.474;2022-08-18T15:36:27;14.57;;;13.05;;
12906;SDS011;6521;50.498;8.474;2022-08-18T15:39:00;16.33;;;12.30;;
12906;SDS011;6521;50.498;8.474;2022-08-18T15:44:07;14.13;;;12.43;;
12906;SDS011;6521;50.498;8.474;2022-08-18T15:46:38;14.68;;;13.15;;
12906;SDS011;6521;50.498;8.474;2022-08-18T15:49:09;14.95;;;13.57;;
12906;SDS011;6521;50.498;8.474;2022-08-18T15:51:41;17.00;;;13.30;;
12906;SDS011;6521;50.498;8.474;2022-08-18T15:54:12;16.23;;;14.27;;
12906;SDS011;6521;50.498;8.474;2022-08-18T15:56:43;14.15;;;12.85;;
12906;SDS011;6521;50.498;8.474;2022-08-18T15:59:14;14.43;;;13.13;;
12906;SDS011;6521;50.498;8.474;2022-08-18T16:01:44;15.18;;;13.88;;
12906;SDS011;6521;50.498;8.474;2022-08-18T16:04:15;16.25;;;14.60;;
12906;SDS011;6521;50.498;8.474;2022-08-18T16:06:45;15.90;;;14.27;;
12906;SDS011;6521;50.498;8.474;2022-08-18T16:09:20;15.95;;;14.30;;
12906;SDS011;6521;50.498;8.474;2022-08-18T16:11:50;16.48;;;14.98;;
12906;SDS011;6521;50.498;8.474;2022-08-18T16:14:21;18.02;;;15.88;;
12906;SDS011;6521;50.498;8.474;2022-08-18T16:16:52;17.17;;;15.43;;
12906;SDS011;6521;50.498;8.474;2022-08-18T16:19:23;16.33;;;14.93;;
12906;SDS011;6521;50.498;8.474;2022-08-18T16:21:54;17.15;;;15.65;;
12906;SDS011;6521;50.498;8.474;2022-08-18T16:24:26;16.38;;;14.95;;
12906;SDS011;6521;50.498;8.474;2022-08-18T16:26:57;16.48;;;14.45;;
12906;SDS011;6521;50.498;8.474;2022-08-18T16:29:28;15.52;;;13.95;;
12906;SDS011;6521;50.498;8.474;2022-08-18T16:31:58;15.65;;;14.27;;
12906;SDS011;6521;50.498;8.474;2022-08-18T16:34:29;16.15;;;14.05;;
12906;SDS011;6521;50.498;8.474;2022-08-18T16:37:00;13.80;;;12.52;;
12906;SDS011;6521;50.498;8.474;2022-08-18T16:39:30;14.32;;;12.93;;
12906;SDS011;6521;50.498;8.474;2022-08-18T16:42:02;14.20;;;12.90;;
12906;SDS011;6521;50.498;8.474;2022-08-18T16:44:33;14.20;;;12.70;;
12906;SDS011;6521;50.498;8.474;2022-08-18T16:47:05;13.73;;;12.32;;
12906;SDS011;6521;50.498;8.474;2022-08-18T16:49:36;12.82;;;11.52;;
12906;SDS011;6521;50.498;8.474;2022-08-18T16:52:07;14.60;;;13.38;;
12906;SDS011;6521;50.498;8.474;2022-08-18T16:54:38;13.63;;;12.35;;
12906;SDS011;6521;50.498;8.474;2022-08-18T16:57:09;14.48;;;13.02;;
12906;SDS011;6521;50.498;8.474;2022-08-18T16:59:40;13.73;;;12.48;;
12906;SDS011;6521;50.498;8.474;2022-08-18T17:02:29;16.02;;;12.63;;
12906;SDS011;6521;50.498;8.474;2022-08-18T17:05:18;14.27;;;12.32;;
12906;SDS011;6521;50.498;8.474;2022-08-18T17:07:49;13.57;;;12.18;;
12906;SDS011;6521;50.498;8.474;2022-08-18T17:10:20;16.40;;;12.65;;
12906;SDS011;6521;50.498;8.474;2022-08-18T17:12:51;13.57;;;12.30;;
12906;SDS011;6521;50.498;8.474;2022-08-18T17:15:21;14.18;;;12.82;;
12906;SDS011;6521;50.498;8.474;2022-08-18T17:17:55;14.15;;;12.65;;
12906;SDS011;6521;50.498;8.474;2022-08-18T17:20:26;16.77;;;13.18;;
12906;SDS011;6521;50.498;8.474;2022-08-18T17:22:57;13.85;;;12.38;;
12906;SDS011;6521;50.498;8.474;2022-08-18T17:25:29;16.85;;;12.95;;
12906;SDS011;6521;50.498;8.474;2022-08-18T17:28:00;12.80;;;11.63;;
12906;SDS011;6521;50.498;8.474;2022-08-18T17:30:32;13.95;;;12.75;;
12906;SDS011;6521;50.498;8.474;2022-08-18T17:33:11;13.18;;;11.98;;
12906;SDS011;6521;50.498;8.474;2022-08-18T17:35:45;12.20;;;11.13;;
12906;SDS011;6521;50.498;8.474;2022-08-18T17:41:21;13.13;;;11.93;;
12906;SDS011;6521;50.498;8.474;2022-08-18T17:43:55;13.55;;;12.15;;
12906;SDS011;6521;50.498;8.474;2022-08-18T17:46:28;13.30;;;11.90;;
12906;SDS011;6521;50.498;8.474;2022-08-18T17:49:05;12.70;;;11.50;;